createdAt,value
2023-04-11T00:01:26.457Z,9.42
2023-04-11T00:03:55.099Z,9.57
2023-04-11T00:06:24.965Z,9.68
2023-04-11T00:08:57.003Z,9.78
2023-04-11T00:11:29.603Z,9.29
2023-04-11T00:13:58.785Z,8.40
2023-04-11T00:16:27.036Z,7.68
2023-04-11T00:18:57.295Z,7.16
2023-04-11T00:21:25.688Z,6.73
2023-04-11T00:23:54.383Z,6.39
2023-04-11T00:26:22.534Z,6.09
2023-04-11T00:28:50.809Z,6.27
2023-04-11T00:31:18.978Z,6.95
2023-04-11T00:33:47.136Z,7.55
2023-04-11T00:36:15.376Z,7.98
2023-04-11T00:38:44.897Z,8.31
2023-04-11T00:41:13.308Z,8.59
2023-04-11T00:43:41.509Z,8.83
2023-04-11T00:46:09.643Z,9.03
2023-04-11T00:48:38.037Z,9.17
2023-04-11T00:51:06.961Z,9.29
2023-04-11T00:53:37.086Z,9.40
2023-04-11T00:56:06.961Z,9.39
2023-04-11T00:58:37.723Z,8.72
2023-04-11T01:01:09.604Z,7.76
2023-04-11T01:03:45.442Z,7.03
2023-04-11T01:06:13.990Z,6.44
2023-04-11T01:08:45.767Z,6.01
2023-04-11T01:11:16.385Z,5.68
2023-04-11T01:13:44.701Z,6.08
2023-04-11T01:16:13.174Z,6.87
2023-04-11T01:18:41.918Z,7.48
2023-04-11T01:21:10.399Z,7.94
2023-04-11T01:23:38.930Z,8.26
2023-04-11T01:26:07.508Z,8.57
2023-04-11T01:28:35.656Z,8.79
2023-04-11T01:31:05.182Z,9.05
2023-04-11T01:33:33.414Z,9.24
2023-04-11T01:36:02.018Z,9.37
2023-04-11T01:38:31.185Z,9.53
2023-04-11T01:40:59.619Z,9.70
2023-04-11T01:43:40.317Z,9.86
2023-04-11T01:46:09.040Z,10.05
2023-04-11T01:48:39.267Z,10.17
2023-04-11T01:51:08.303Z,10.27
2023-04-11T01:53:36.627Z,10.38
2023-04-11T01:56:05.715Z,10.14
2023-04-11T01:58:33.879Z,9.21
2023-04-11T02:01:02.152Z,8.34
2023-04-11T02:03:30.799Z,7.69
2023-04-11T02:05:59.133Z,7.23
2023-04-11T02:08:27.226Z,6.87
2023-04-11T02:10:56.828Z,6.57
2023-04-11T02:13:24.959Z,6.32
2023-04-11T02:15:53.069Z,6.09
2023-04-11T02:18:21.416Z,5.89
2023-04-11T02:20:50.518Z,5.74
2023-04-11T02:23:18.781Z,5.60
2023-04-11T02:25:48.076Z,5.48
2023-04-11T02:28:16.251Z,5.46
2023-04-11T02:30:44.431Z,6.19
2023-04-11T02:33:32.595Z,7.14
2023-04-11T02:36:04.223Z,7.96
2023-04-11T02:38:32.698Z,8.50
2023-04-11T02:41:01.371Z,8.91
2023-04-11T02:43:29.606Z,9.26
2023-04-11T02:46:09.597Z,9.57
2023-04-11T02:48:40.991Z,9.87
2023-04-11T02:51:09.229Z,10.12
2023-04-11T02:53:37.419Z,10.38
2023-04-11T02:56:07.416Z,10.55
2023-04-11T02:58:39.026Z,10.72
2023-04-11T03:01:08.196Z,10.88
2023-04-11T03:03:36.430Z,10.98
2023-04-11T03:06:06.990Z,11.05
2023-04-11T03:08:37.377Z,11.13
2023-04-11T03:11:06.793Z,11.25
2023-04-11T03:13:37.316Z,11.18
2023-04-11T03:16:07.121Z,11.18
2023-04-11T03:18:35.529Z,11.22
2023-04-11T03:21:11.166Z,11.32
2023-04-11T03:23:41.182Z,11.43
2023-04-11T03:26:09.526Z,11.46
2023-04-11T03:28:37.740Z,11.54
2023-04-11T03:31:06.867Z,11.62
2023-04-11T03:33:35.214Z,11.66
2023-04-11T03:36:04.419Z,11.71
2023-04-11T03:38:32.683Z,11.69
2023-04-11T03:41:01.073Z,11.64
2023-04-11T03:43:29.571Z,11.60
2023-04-11T03:45:58.148Z,11.64
2023-04-11T03:48:38.656Z,11.68
2023-04-11T03:51:09.694Z,11.72
2023-04-11T03:53:52.749Z,11.77
2023-04-11T03:56:33.027Z,11.87
2023-04-11T03:59:02.099Z,11.95
2023-04-11T04:01:38.143Z,12.05
2023-04-11T04:04:07.704Z,12.12
2023-04-11T04:06:38.870Z,12.17
2023-04-11T04:09:07.551Z,12.10
2023-04-11T04:11:46.636Z,12.15
2023-04-11T04:14:15.522Z,12.15
2023-04-11T04:16:44.036Z,12.11
2023-04-11T04:19:12.971Z,12.16
2023-04-11T04:21:45.956Z,12.22
2023-04-11T04:24:15.160Z,12.25
2023-04-11T04:27:01.147Z,12.29
2023-04-11T04:29:49.799Z,12.42
2023-04-11T04:32:25.193Z,12.52
2023-04-11T04:34:58.978Z,12.62
2023-04-11T04:37:32.658Z,12.70
2023-04-11T04:40:08.524Z,12.81
2023-04-11T04:42:43.478Z,12.76
2023-04-11T04:45:11.791Z,12.64
2023-04-11T04:47:40.630Z,12.71
2023-04-11T04:50:10.161Z,12.79
2023-04-11T04:52:38.480Z,12.83
2023-04-11T04:55:07.597Z,12.76
2023-04-11T04:57:36.870Z,12.81
2023-04-11T05:00:12.100Z,12.92
2023-04-11T05:02:47.302Z,12.97
2023-04-11T05:05:15.902Z,12.96
2023-04-11T05:07:45.348Z,13.02
2023-04-11T05:10:13.962Z,12.91
2023-04-11T05:12:42.993Z,12.82
2023-04-11T05:15:11.900Z,12.87
2023-04-11T05:17:43.859Z,12.80
2023-04-11T05:20:16.213Z,12.76
2023-04-11T05:22:49.242Z,12.65
2023-04-11T05:25:21.484Z,12.71
2023-04-11T05:27:52.578Z,12.84
2023-04-11T05:30:24.019Z,12.95
2023-04-11T05:32:52.794Z,13.05
2023-04-11T05:35:24.595Z,13.23
2023-04-11T05:37:58.451Z,13.38
2023-04-11T05:40:26.944Z,13.48
2023-04-11T05:42:55.423Z,13.66
2023-04-11T05:45:26.673Z,13.85
2023-04-11T05:47:55.163Z,14.03
2023-04-11T05:50:24.518Z,14.17
2023-04-11T05:52:55.358Z,14.21
2023-04-11T05:55:23.753Z,14.28
2023-04-11T05:57:54.769Z,14.31
2023-04-11T06:00:28.879Z,14.38
2023-04-11T06:02:57.879Z,14.47
2023-04-11T06:05:26.988Z,14.61
2023-04-11T06:07:56.667Z,14.09
2023-04-11T06:10:24.944Z,13.53
2023-04-11T06:12:53.134Z,13.23
2023-04-11T06:15:25.867Z,13.68
2023-04-11T06:17:54.392Z,14.46
2023-04-11T06:20:23.068Z,15.05
2023-04-11T06:22:51.588Z,14.99
2023-04-11T06:25:40.882Z,14.27
2023-04-11T06:28:09.054Z,13.77
2023-04-11T06:30:37.373Z,14.29
2023-04-11T06:33:05.715Z,14.87
2023-04-11T06:35:34.053Z,14.54
2023-04-11T06:38:02.443Z,13.95
2023-04-11T06:40:30.628Z,14.19
2023-04-11T06:43:00.335Z,14.64
2023-04-11T06:45:29.281Z,14.98
2023-04-11T06:47:57.486Z,15.11
2023-04-11T06:50:26.167Z,15.23
2023-04-11T06:52:54.345Z,15.19
2023-04-11T06:55:23.036Z,14.52
2023-04-11T06:57:51.421Z,13.83
2023-04-11T07:00:20.526Z,13.35
2023-04-11T07:02:49.113Z,13.34
2023-04-11T07:05:18.001Z,14.05
2023-04-11T07:07:46.312Z,14.66
2023-04-11T07:10:14.705Z,15.09
2023-04-11T07:12:42.794Z,15.19
2023-04-11T07:15:11.238Z,14.53
2023-04-11T07:17:41.996Z,14.00
2023-04-11T07:20:11.665Z,14.37
2023-04-11T07:22:43.405Z,14.85
2023-04-11T07:25:11.751Z,15.18
2023-04-11T07:27:43.766Z,15.46
2023-04-11T07:30:12.782Z,15.22
2023-04-11T07:32:41.111Z,14.65
2023-04-11T07:35:12.893Z,14.14
2023-04-11T07:37:42.478Z,14.03
2023-04-11T07:40:13.878Z,14.70
2023-04-11T07:42:42.237Z,15.25
2023-04-11T07:45:10.844Z,15.63
2023-04-11T07:48:21.281Z,15.69
2023-04-11T07:50:49.629Z,15.10
2023-04-11T07:53:17.718Z,14.69
2023-04-11T07:56:09.991Z,14.68
2023-04-11T07:58:44.321Z,15.70
2023-04-11T08:01:23.427Z,16.07
2023-04-11T08:04:15.922Z,15.61
2023-04-11T08:07:01.304Z,15.13
2023-04-11T08:09:29.539Z,14.70
2023-04-11T08:12:29.289Z,14.32
2023-04-11T08:14:57.813Z,14.14
2023-04-11T08:17:42.764Z,13.94
2023-04-11T08:20:15.523Z,13.70
2023-04-11T08:22:47.059Z,14.09
2023-04-11T08:25:22.813Z,15.03
2023-04-11T08:27:51.643Z,15.84
2023-04-11T08:30:20.421Z,16.14
2023-04-11T08:32:49.304Z,15.65
2023-04-11T08:35:17.761Z,15.18
2023-04-11T08:37:46.168Z,14.90
2023-04-11T08:40:14.687Z,14.56
2023-04-11T08:42:43.082Z,14.37
2023-04-11T08:45:12.218Z,14.26
2023-04-11T08:47:43.186Z,14.20
2023-04-11T08:50:12.982Z,13.87
2023-04-11T08:52:42.476Z,13.49
2023-04-11T08:55:16.291Z,13.27
2023-04-11T08:57:44.535Z,13.53
2023-04-11T09:00:14.825Z,14.48
2023-04-11T09:03:05.699Z,15.36
2023-04-11T09:05:43.490Z,15.75
2023-04-11T09:08:16.268Z,15.38
2023-04-11T09:10:45.725Z,15.00
2023-04-11T09:13:28.046Z,14.79
2023-04-11T09:16:07.710Z,14.69
2023-04-11T09:18:47.037Z,14.69
2023-04-11T09:21:36.327Z,14.70
2023-04-11T09:24:15.711Z,14.61
2023-04-11T09:26:51.949Z,14.49
2023-04-11T09:29:45.723Z,14.46
2023-04-11T09:32:34.592Z,14.35
2023-04-11T09:35:25.965Z,14.27
2023-04-11T09:38:09.495Z,14.30
2023-04-11T09:40:43.817Z,14.24
2023-04-11T09:44:10.291Z,14.21
2023-04-11T09:47:09.862Z,14.31
2023-04-11T09:49:58.867Z,14.34
2023-04-11T09:52:47.683Z,14.30
2023-04-11T09:56:03.282Z,14.34
2023-04-11T09:58:58.485Z,14.34
2023-04-11T10:01:29.943Z,14.52
2023-04-11T10:04:01.581Z,14.69
2023-04-11T10:07:33.229Z,14.81
2023-04-11T10:10:19.956Z,14.96
2023-04-11T10:13:58.691Z,15.03
2023-04-11T10:16:48.463Z,15.04
2023-04-11T10:19:19.794Z,15.07
2023-04-11T10:21:59.715Z,15.11
2023-04-11T10:24:30.728Z,15.12
2023-04-11T10:27:06.222Z,15.29
2023-04-11T10:29:49.233Z,15.47
2023-04-11T10:32:30.838Z,15.66
2023-04-11T10:35:22.770Z,15.69
2023-04-11T10:37:57.598Z,15.68
2023-04-11T10:41:19.422Z,15.75
2023-04-11T10:43:50.769Z,15.84
2023-04-11T10:46:55.965Z,16.00
2023-04-11T10:50:41.098Z,16.12
2023-04-11T10:53:42.344Z,16.38
2023-04-11T10:56:43.088Z,16.50
2023-04-11T10:59:36.132Z,16.69
2023-04-11T11:02:06.999Z,16.80
2023-04-11T11:04:39.518Z,16.93
2023-04-11T11:07:17.102Z,17.08
2023-04-11T11:09:51.115Z,17.22
2023-04-11T11:12:22.842Z,17.08
2023-04-11T11:14:51.487Z,16.97
2023-04-11T11:17:19.955Z,16.92
2023-04-11T11:19:48.686Z,16.84
2023-04-11T11:22:18.377Z,16.64
2023-04-11T11:24:49.701Z,16.41
2023-04-11T11:27:25.044Z,16.23
2023-04-11T11:29:53.903Z,16.09
2023-04-11T11:32:29.049Z,15.85
2023-04-11T11:34:57.946Z,15.56
2023-04-11T11:37:27.233Z,15.38
2023-04-11T11:39:58.959Z,15.41
2023-04-11T11:42:28.220Z,15.45
2023-04-11T11:45:19.756Z,15.49
2023-04-11T11:47:49.477Z,15.61
2023-04-11T11:50:32.578Z,15.79
2023-04-11T11:53:15.619Z,15.89
2023-04-11T11:55:43.826Z,16.06
2023-04-11T11:58:18.130Z,16.24
2023-04-11T12:03:47.703Z,16.28
2023-04-11T12:06:35.341Z,16.04
2023-04-11T12:09:12.624Z,15.86
2023-04-11T12:11:47.764Z,15.86
2023-04-11T12:14:30.743Z,15.94
2023-04-11T12:17:19.341Z,16.17
2023-04-11T12:19:47.613Z,16.43
2023-04-11T12:22:16.013Z,16.61
2023-04-11T12:24:44.166Z,16.90
2023-04-11T12:27:12.840Z,17.11
2023-04-11T12:29:41.230Z,17.23
2023-04-11T12:32:11.733Z,17.29
2023-04-11T12:34:42.722Z,17.33
2023-04-11T12:37:12.638Z,17.34
2023-04-11T12:39:44.258Z,17.33
2023-04-11T12:42:18.646Z,17.41
2023-04-11T12:44:51.866Z,17.53
2023-04-11T12:47:20.704Z,17.66
2023-04-11T12:50:09.765Z,17.77
2023-04-11T12:52:59.118Z,17.81
2023-04-11T12:55:31.073Z,17.78
2023-04-11T12:58:20.163Z,17.88
2023-04-11T13:00:48.387Z,18.02
2023-04-11T13:03:40.176Z,18.15
2023-04-11T13:06:29.665Z,18.37
2023-04-11T13:09:03.650Z,18.58
2023-04-11T13:11:32.789Z,18.62
2023-04-11T13:14:04.546Z,18.72
2023-04-11T13:16:38.609Z,18.80
2023-04-11T13:19:26.695Z,18.91
2023-04-11T13:21:54.976Z,18.89
2023-04-11T13:24:32.330Z,18.65
2023-04-11T13:27:03.612Z,18.51
2023-04-11T13:29:52.208Z,18.42
2023-04-11T13:32:40.815Z,18.04
2023-04-11T13:35:10.321Z,17.78
2023-04-11T13:37:42.177Z,17.53
2023-04-11T13:40:13.759Z,17.17
2023-04-11T13:42:42.282Z,16.77
2023-04-11T13:45:35.471Z,16.52
2023-04-11T13:48:07.324Z,16.39
2023-04-11T13:50:38.677Z,16.24
2023-04-11T13:53:06.841Z,16.06
2023-04-11T13:55:49.254Z,15.85
2023-04-11T13:58:20.095Z,15.69
2023-04-11T14:00:51.893Z,15.68
2023-04-11T14:03:20.386Z,15.77
2023-04-11T14:05:51.293Z,15.83
2023-04-11T14:08:44.007Z,15.73
2023-04-11T14:12:02.577Z,15.67
2023-04-11T14:14:36.281Z,15.55
2023-04-11T14:17:10.251Z,15.43
2023-04-11T14:19:38.761Z,15.34
2023-04-11T14:22:09.903Z,15.30
2023-04-11T14:24:58.502Z,15.28
2023-04-11T14:27:30.004Z,15.29
2023-04-11T14:29:58.587Z,15.31
2023-04-11T14:32:26.976Z,15.24
2023-04-11T14:34:55.377Z,15.13
2023-04-11T14:37:23.670Z,15.05
2023-04-11T14:39:51.756Z,14.95
2023-04-11T14:42:20.371Z,14.85
2023-04-11T14:44:58.287Z,14.79
2023-04-11T14:47:34.353Z,14.72
2023-04-11T14:50:02.668Z,14.69
2023-04-11T14:52:30.920Z,14.64
2023-04-11T14:54:59.153Z,14.55
2023-04-11T14:57:52.352Z,14.45
2023-04-11T15:00:22.052Z,14.39
2023-04-11T15:02:57.537Z,14.35
2023-04-11T15:05:26.806Z,14.30
2023-04-11T15:07:57.945Z,14.26
2023-04-11T15:10:26.587Z,14.21
2023-04-11T15:12:57.686Z,14.17
2023-04-11T15:15:25.996Z,14.14
2023-04-11T15:18:24.916Z,14.11
2023-04-11T15:20:53.107Z,14.05
2023-04-11T15:23:21.711Z,14.00
2023-04-11T15:25:57.570Z,13.95
2023-04-11T15:28:26.878Z,13.94
2023-04-11T15:30:55.691Z,13.93
2023-04-11T15:33:24.494Z,13.90
2023-04-11T15:35:57.856Z,13.87
2023-04-11T15:38:28.436Z,13.83
2023-04-11T15:40:59.324Z,13.80
2023-04-11T15:43:27.897Z,13.76
2023-04-11T15:46:19.085Z,13.72
2023-04-11T15:48:47.231Z,13.70
2023-04-11T15:51:17.232Z,13.70
2023-04-11T15:53:45.486Z,13.68
2023-04-11T15:56:13.676Z,13.66
2023-04-11T15:59:17.705Z,13.65
2023-04-11T16:01:46.736Z,13.64
2023-04-11T16:04:16.474Z,13.65
2023-04-11T16:06:45.032Z,13.68
2023-04-11T16:09:13.239Z,13.71
2023-04-11T16:11:41.635Z,13.73
2023-04-11T16:14:11.322Z,13.76
2023-04-11T16:16:39.649Z,13.80
2023-04-11T16:19:08.144Z,13.85
2023-04-11T16:21:36.373Z,13.87
2023-04-11T16:24:05.177Z,13.84
2023-04-11T16:26:33.523Z,13.80
2023-04-11T16:29:04.608Z,13.70
2023-04-11T16:31:33.150Z,13.61
2023-04-11T16:34:21.821Z,13.51
2023-04-11T16:37:10.475Z,13.41
2023-04-11T16:39:38.875Z,13.32
2023-04-11T16:42:07.288Z,13.22
2023-04-11T16:44:35.462Z,13.14
2023-04-11T16:47:03.969Z,13.04
2023-04-11T16:49:35.099Z,12.95
2023-04-11T16:52:04.052Z,12.87
2023-04-11T16:54:35.745Z,12.80
2023-04-11T16:57:07.063Z,12.73
2023-04-11T16:59:35.191Z,12.64
2023-04-11T17:02:06.794Z,12.55
2023-04-11T17:04:35.379Z,12.46
2023-04-11T17:07:03.619Z,12.39
2023-04-11T17:09:35.101Z,12.33
2023-04-11T17:12:03.550Z,12.27
2023-04-11T17:14:39.721Z,12.20
2023-04-11T17:17:28.217Z,12.12
2023-04-11T17:20:10.257Z,12.07
2023-04-11T17:22:41.559Z,12.02
2023-04-11T17:25:12.576Z,11.97
2023-04-11T17:27:41.652Z,11.94
2023-04-11T17:30:12.490Z,11.88
2023-04-11T17:32:40.996Z,11.83
2023-04-11T17:35:10.025Z,11.78
2023-04-11T17:37:38.222Z,11.72
2023-04-11T17:40:12.196Z,11.65
2023-04-11T17:42:41.376Z,11.58
2023-04-11T17:45:17.805Z,11.53
2023-04-11T17:47:47.931Z,11.47
2023-04-11T17:50:16.840Z,11.41
2023-04-11T17:52:46.832Z,11.36
2023-04-11T17:55:17.351Z,11.31
2023-04-11T17:57:49.755Z,11.26
2023-04-11T18:00:23.478Z,11.20
2023-04-11T18:02:57.840Z,11.14
2023-04-11T18:05:27.949Z,11.07
2023-04-11T18:07:57.739Z,11.02
2023-04-11T18:10:27.560Z,10.95
2023-04-11T18:12:56.950Z,10.89
2023-04-11T18:15:25.846Z,10.83
2023-04-11T18:17:54.334Z,10.78
2023-04-11T18:20:23.332Z,10.74
2023-04-11T18:22:56.325Z,10.71
2023-04-11T18:25:25.100Z,10.67
2023-04-11T18:27:53.581Z,10.62
2023-04-11T18:30:21.848Z,10.56
2023-04-11T18:32:54.009Z,10.50
2023-04-11T18:35:23.599Z,10.42
2023-04-11T18:37:52.050Z,10.35
2023-04-11T18:40:20.285Z,10.29
2023-04-11T18:42:51.889Z,10.23
2023-04-11T18:45:22.021Z,10.24
2023-04-11T18:47:50.263Z,11.00
2023-04-11T18:50:19.106Z,11.94
2023-04-11T18:52:51.217Z,12.60
2023-04-11T18:55:21.193Z,13.11
2023-04-11T18:57:52.488Z,13.48
2023-04-11T19:00:24.059Z,13.78
2023-04-11T19:02:52.617Z,14.01
2023-04-11T19:05:21.761Z,14.22
2023-04-11T19:07:50.250Z,14.28
2023-04-11T19:10:18.740Z,13.71
2023-04-11T19:12:46.967Z,12.96
2023-04-11T19:15:15.744Z,12.37
2023-04-11T19:17:44.454Z,11.90
2023-04-11T19:20:13.388Z,11.53
2023-04-11T19:22:43.081Z,11.21
2023-04-11T19:25:12.006Z,10.90
2023-04-11T19:27:42.062Z,10.58
2023-04-11T19:30:13.876Z,10.30
2023-04-11T19:32:44.309Z,10.03
2023-04-11T19:35:13.050Z,9.78
2023-04-11T19:37:41.939Z,9.55
2023-04-11T19:40:13.932Z,9.35
2023-04-11T19:42:43.288Z,9.17
2023-04-11T19:45:12.224Z,9.34
2023-04-11T19:47:41.974Z,10.20
2023-04-11T19:50:14.549Z,10.98
2023-04-11T19:52:43.287Z,11.55
2023-04-11T19:55:12.599Z,11.95
2023-04-11T19:57:43.886Z,12.23
2023-04-11T20:00:14.360Z,12.41
2023-04-11T20:02:48.636Z,12.57
2023-04-11T20:05:18.967Z,12.73
2023-04-11T20:07:47.918Z,12.88
2023-04-11T20:10:16.934Z,13.06
2023-04-11T20:12:45.348Z,13.23
2023-04-11T20:15:13.880Z,13.39
2023-04-11T20:17:43.743Z,13.47
2023-04-11T20:20:14.373Z,13.02
2023-04-11T20:22:44.917Z,12.15
2023-04-11T20:25:13.497Z,11.46
2023-04-11T20:27:42.878Z,10.94
2023-04-11T20:30:12.239Z,10.52
2023-04-11T20:32:41.198Z,10.14
2023-04-11T20:35:12.323Z,9.81
2023-04-11T20:37:43.552Z,9.53
2023-04-11T20:40:14.175Z,9.28
2023-04-11T20:42:47.669Z,9.07
2023-04-11T20:45:18.102Z,8.87
2023-04-11T20:47:47.724Z,8.70
2023-04-11T20:50:17.328Z,8.50
2023-04-11T20:52:46.825Z,8.32
2023-04-11T20:55:15.834Z,8.15
2023-04-11T20:57:44.907Z,8.01
2023-04-11T21:00:14.445Z,8.03
2023-04-11T21:02:46.044Z,8.82
2023-04-11T21:05:15.274Z,9.64
2023-04-11T21:07:43.701Z,10.23
2023-04-11T21:10:22.756Z,10.68
2023-04-11T21:12:54.600Z,11.05
2023-04-11T21:15:23.159Z,11.37
2023-04-11T21:17:52.392Z,11.60
2023-04-11T21:20:22.744Z,11.79
2023-04-11T21:22:55.318Z,11.99
2023-04-11T21:25:24.228Z,12.16
2023-04-11T21:27:52.690Z,12.30
2023-04-11T21:30:21.026Z,12.40
2023-04-11T21:33:04.844Z,12.44
2023-04-11T21:35:33.222Z,11.69
2023-04-11T21:38:01.968Z,10.87
2023-04-11T21:40:30.681Z,10.18
2023-04-11T21:42:59.026Z,9.64
2023-04-11T21:45:27.721Z,9.18
2023-04-11T21:47:56.112Z,8.80
2023-04-11T21:50:24.775Z,8.48
2023-04-11T21:53:02.647Z,8.17
2023-04-11T21:55:30.850Z,7.89
2023-04-11T21:57:59.226Z,7.67
2023-04-11T22:00:29.864Z,7.49
2023-04-11T22:02:58.107Z,7.38
2023-04-11T22:05:26.850Z,7.97
2023-04-11T22:08:12.837Z,8.86
2023-04-11T22:10:48.107Z,9.61
2023-04-11T22:13:20.018Z,10.11
2023-04-11T22:16:05.517Z,10.45
2023-04-11T22:18:46.466Z,10.71
2023-04-11T22:21:19.825Z,10.92
2023-04-11T22:23:49.973Z,11.07
2023-04-11T22:26:18.265Z,11.18
2023-04-11T22:28:50.415Z,11.27
2023-04-11T22:31:18.628Z,11.36
2023-04-11T22:33:48.202Z,11.43
2023-04-11T22:36:17.287Z,11.48
2023-04-11T22:38:45.784Z,11.57
2023-04-11T22:41:15.987Z,11.57
2023-04-11T22:43:44.471Z,10.82
2023-04-11T22:46:13.298Z,9.83
2023-04-11T22:48:42.208Z,9.04
2023-04-11T22:51:10.473Z,8.42
2023-04-11T22:53:42.352Z,7.94
2023-04-11T22:56:11.071Z,7.55
2023-04-11T22:58:39.974Z,7.23
2023-04-11T23:01:14.733Z,7.35
2023-04-11T23:03:43.265Z,8.17
2023-04-11T23:06:11.845Z,8.82
2023-04-11T23:08:40.210Z,9.25
2023-04-11T23:11:08.399Z,9.59
2023-04-11T23:13:37.738Z,9.78
2023-04-11T23:16:07.077Z,9.96
2023-04-11T23:18:35.692Z,10.08
2023-04-11T23:21:04.603Z,10.21
2023-04-11T23:23:32.679Z,10.32
2023-04-11T23:26:01.325Z,10.44
2023-04-11T23:28:29.910Z,10.52
2023-04-11T23:30:58.343Z,10.62
2023-04-11T23:33:26.570Z,10.69
2023-04-11T23:35:55.185Z,10.80
2023-04-11T23:38:23.553Z,10.86
2023-04-11T23:40:51.768Z,10.81
2023-04-11T23:43:20.078Z,10.00
2023-04-11T23:45:48.395Z,9.08
2023-04-11T23:48:17.082Z,8.34
2023-04-11T23:50:45.199Z,7.78
2023-04-11T23:53:13.618Z,7.33
2023-04-11T23:55:42.533Z,6.94
2023-04-11T23:58:10.755Z,6.62
